Time;durP1;ratioP1;P1;durP2;ratioP2;P2;SDS_P1;SDS_P2;PMS_P1;PMS_P2;Temp;Humidity;BMP_temperature;BMP_pressure;BME280_temperature;BME280_humidity;BME280_pressure;Samples;Min_cycle;Max_cycle;Signal;HPM_P1;HPM_P2
2023/08/22 12:37:39;;;;;;;11.35;5.20;;;;;;;31.45;51.35;94862.50;5855393;23;20504;-84
2023/08/22 12:40:12;;;;;;;12.98;5.82;;;;;;;30.83;50.46;94875.28;4960118;29;20125;-86
2023/08/22 12:42:39;;;;;;;12.05;5.45;;;;;;;31.36;49.92;94858.66;4941148;29;20035;-85
2023/08/22 12:45:08;;;;;;;9.15;5.38;;;;;;;31.58;52.65;94867.50;4943864;29;20027;-85
2023/08/22 12:47:36;;;;;;;8.23;5.22;;;;;;;31.70;53.83;94872.44;4915856;29;20028;-85
2023/08/22 12:50:02;;;;;;;8.20;5.40;;;;;;;31.86;53.36;94866.63;4924898;29;20047;-87
2023/08/22 12:52:27;;;;;;;11.38;5.80;;;;;;;32.24;50.82;94854.44;4925240;29;20035;-87
2023/08/22 12:54:53;;;;;;;8.57;5.85;;;;;;;32.02;50.00;94868.09;4941295;29;20155;-86
2023/08/22 12:57:18;;;;;;;8.63;5.95;;;;;;;31.81;51.66;94858.13;4942014;29;20078;-87
2023/08/22 12:59:43;;;;;;;9.52;5.60;;;;;;;32.11;51.66;94849.47;4925267;29;20036;-85
2023/08/22 13:02:09;;;;;;;11.70;5.80;;;;;;;32.21;52.14;94863.34;4941958;29;20330;-86
2023/08/22 13:04:34;;;;;;;10.05;6.45;;;;;;;31.78;55.95;94848.88;4940811;29;20043;-86
2023/08/22 13:06:59;;;;;;;12.25;6.30;;;;;;;31.99;52.29;94847.22;4924488;29;20130;-86
2023/08/22 13:09:25;;;;;;;10.88;5.93;;;;;;;31.83;53.20;94851.16;4953816;29;20363;-86
2023/08/22 13:11:51;;;;;;;9.25;6.10;;;;;;;31.50;54.13;94844.28;4943801;29;20031;-85
2023/08/22 13:14:16;;;;;;;13.68;6.25;;;;;;;31.69;53.77;94851.19;4943469;29;20364;-84
2023/08/22 13:16:42;;;;;;;9.75;6.20;;;;;;;31.64;53.20;94838.06;4944991;29;20043;-85
2023/08/22 13:19:07;;;;;;;9.60;6.35;;;;;;;30.99;53.24;94844.41;4941722;29;20037;-86
2023/08/22 13:21:33;;;;;;;10.75;7.30;;;;;;;31.11;55.50;94841.25;4924205;29;20445;-85
2023/08/22 13:24:02;;;;;;;8.45;6.07;;;;;;;31.31;55.53;94838.94;4941384;29;20059;-86
2023/08/22 13:26:29;;;;;;;18.75;7.07;;;;;;;31.23;54.45;94836.63;4924805;29;20063;-86
2023/08/22 13:28:54;;;;;;;9.95;6.25;;;;;;;32.22;54.69;94829.69;4956367;29;20079;-85
2023/08/22 13:31:23;;;;;;;7.93;6.10;;;;;;;31.85;54.39;94834.53;4960966;29;20035;-85
2023/08/22 13:33:51;;;;;;;8.32;6.18;;;;;;;31.88;55.35;94822.91;4943099;28;20046;-85
2023/08/22 13:36:17;;;;;;;8.18;6.03;;;;;;;31.97;54.54;94823.22;4927638;29;20058;-87
2023/08/22 13:38:42;;;;;;;9.70;6.70;;;;;;;32.49;52.75;94834.53;4927560;29;20031;-86
2023/08/22 13:41:07;;;;;;;14.40;6.57;;;;;;;31.70;49.88;94825.66;4927572;29;20421;-86
2023/08/22 13:43:33;;;;;;;11.20;6.25;;;;;;;32.25;50.88;94813.38;4943065;29;20031;-87
2023/08/22 13:45:58;;;;;;;9.10;6.18;;;;;;;32.99;53.54;94817.88;4927574;29;20035;-86
2023/08/22 13:48:23;;;;;;;8.45;5.82;;;;;;;32.88;50.89;94819.88;4927102;29;20074;-87
2023/08/22 13:50:49;;;;;;;12.60;6.28;;;;;;;33.55;50.41;94821.56;4942986;29;20043;-88
2023/08/22 13:53:15;;;;;;;8.10;6.28;;;;;;;32.95;51.61;94814.44;4943512;29;20063;-88
2023/08/22 13:55:45;;;;;;;10.43;5.90;;;;;;;32.95;51.17;94813.66;4943371;29;20043;-86
2023/08/22 13:58:11;;;;;;;8.77;6.38;;;;;;;33.40;48.90;94808.13;4960014;29;20042;-86
2023/08/22 14:00:37;;;;;;;13.93;6.40;;;;;;;32.75;49.77;94814.19;4960116;29;20043;-85
2023/08/22 14:03:02;;;;;;;9.63;5.30;;;;;;;33.65;50.52;94804.38;4942143;29;20038;-86
2023/08/22 14:05:27;;;;;;;8.10;5.95;;;;;;;33.39;48.74;94801.16;4959816;29;20039;-85
2023/08/22 14:07:53;;;;;;;13.15;6.78;;;;;;;32.94;48.32;94803.97;4942626;29;20085;-85
2023/08/22 14:10:23;;;;;;;8.80;6.32;;;;;;;33.54;48.27;94806.47;4959966;29;20042;-85
2023/08/22 14:12:50;;;;;;;7.63;6.32;;;;;;;33.86;47.47;94808.03;4959533;29;20356;-85
2023/08/22 14:15:15;;;;;;;13.85;6.90;;;;;;;33.54;46.63;94809.19;4945368;29;20048;-85
2023/08/22 14:17:41;;;;;;;10.10;5.22;;;;;;;34.44;48.27;94807.22;4940433;29;20040;-84
2023/08/22 14:20:07;;;;;;;8.35;5.72;;;;;;;34.37;45.55;94810.03;4940499;29;20050;-87
2023/08/22 14:22:32;;;;;;;10.40;5.95;;;;;;;35.27;44.04;94812.47;4952994;29;20047;-86
2023/08/22 14:24:57;;;;;;;10.05;5.80;;;;;;;35.63;44.73;94801.66;4959450;29;20039;-85
2023/08/22 14:27:23;;;;;;;10.23;5.70;;;;;;;35.72;44.68;94803.03;4959193;29;20038;-86
2023/08/22 14:29:48;;;;;;;7.30;5.53;;;;;;;35.81;44.03;94800.53;4959662;29;20043;-84
2023/08/22 14:32:14;;;;;;;8.95;5.60;;;;;;;35.35;45.17;94803.75;4950269;29;20058;-86
2023/08/22 14:34:39;;;;;;;12.57;5.93;;;;;;;35.43;43.13;94803.59;4940163;29;20050;-87
2023/08/22 14:37:04;;;;;;;9.65;5.53;;;;;;;37.39;41.01;94796.41;4923120;29;20130;-87
2023/08/22 14:39:31;;;;;;;8.85;5.45;;;;;;;38.85;39.07;94794.41;4948643;29;20067;-87
2023/08/22 14:41:57;;;;;;;12.93;5.13;;;;;;;38.64;38.49;94787.66;4942402;29;20055;-87
2023/08/22 14:44:22;;;;;;;10.63;5.03;;;;;;;41.14;37.83;94796.81;4959406;29;20122;-86
2023/08/22 14:46:47;;;;;;;7.22;4.90;;;;;;;39.24;36.99;94794.25;4958528;28;20031;-87
2023/08/22 14:49:13;;;;;;;9.20;4.70;;;;;;;42.06;33.30;94797.94;4941766;29;20039;-90
2023/08/22 14:51:38;;;;;;;10.77;5.40;;;;;;;40.22;34.88;94795.44;4926128;29;20031;-88
2023/08/22 14:54:04;;;;;;;8.95;5.03;;;;;;;41.77;32.50;94799.22;4959338;29;20086;-87
2023/08/22 14:56:30;;;;;;;9.98;4.38;;;;;;;41.08;33.73;94787.69;4959337;29;20027;-87
2023/08/22 14:58:55;;;;;;;5.80;5.10;;;;;;;39.10;33.96;94783.81;4941655;29;20077;-88
2023/08/22 15:01:21;;;;;;;10.35;5.13;;;;;;;40.77;33.14;94792.09;4959224;29;20035;-87
2023/08/22 15:03:47;;;;;;;6.30;4.88;;;;;;;40.66;33.79;94792.50;4941905;29;20521;-87
2023/08/22 15:06:13;;;;;;;12.27;4.55;;;;;;;43.16;31.58;94780.41;4942043;29;20039;-88
2023/08/22 15:08:40;;;;;;;8.82;5.05;;;;;;;38.86;35.23;94775.97;4959094;29;20046;-87
2023/08/22 15:11:05;;;;;;;5.90;4.70;;;;;;;38.58;37.62;94779.25;4941980;29;20027;-87
2023/08/22 15:13:31;;;;;;;8.48;5.22;;;;;;;37.20;38.59;94779.75;4958736;29;20034;-86
2023/08/22 15:15:57;;;;;;;13.65;5.15;;;;;;;36.91;39.37;94783.97;4958647;29;20436;-87
2023/08/22 15:18:23;;;;;;;9.18;4.57;;;;;;;40.15;35.58;94780.03;4925609;29;20035;-87
2023/08/22 15:20:50;;;;;;;7.10;5.28;;;;;;;36.43;39.50;94780.09;4941562;29;20046;-87
2023/08/22 15:23:16;;;;;;;6.90;5.03;;;;;;;40.91;34.14;94785.25;4941722;29;20110;-87
2023/08/22 15:25:41;;;;;;;8.07;4.50;;;;;;;42.94;32.25;94778.78;4958924;29;20043;-88
2023/08/22 15:28:07;;;;;;;6.47;5.35;;;;;;;39.88;34.37;94781.44;4958738;29;20035;-87
2023/08/22 15:30:33;;;;;;;6.88;4.63;;;;;;;40.48;34.66;94773.28;4958943;29;20035;-86
2023/08/22 15:32:59;;;;;;;7.25;4.43;;;;;;;42.83;32.41;94773.03;4943640;29;20054;-86
2023/08/22 15:35:24;;;;;;;12.00;5.15;;;;;;;39.00;35.74;94766.53;4921987;29;20035;-88
2023/08/22 15:37:50;;;;;;;8.93;5.22;;;;;;;36.13;39.50;94774.53;4922739;29;20032;-87
2023/08/22 15:40:15;;;;;;;10.68;5.13;;;;;;;40.24;33.64;94765.56;4922563;29;20067;-87
2023/08/22 15:42:41;;;;;;;12.07;5.00;;;;;;;41.45;32.79;94770.41;4939631;29;20043;-87
2023/08/22 15:45:07;;;;;;;8.48;5.30;;;;;;;39.37;33.19;94766.03;4939595;29;20105;-87
2023/08/22 15:47:32;;;;;;;10.43;5.03;;;;;;;43.56;32.74;94769.34;4922445;29;20035;-86
2023/08/22 15:49:57;;;;;;;10.93;4.68;;;;;;;42.91;33.35;94763.19;4947912;29;20337;-86
2023/08/22 15:52:23;;;;;;;12.25;4.70;;;;;;;41.11;34.00;94762.81;4941063;29;20046;-87
2023/08/22 15:54:49;;;;;;;6.60;4.90;;;;;;;41.50;33.78;94764.28;4941427;29;20043;-86
2023/08/22 15:57:14;;;;;;;7.80;4.60;;;;;;;42.53;35.32;94762.66;4941640;28;20459;-86
2023/08/22 15:59:40;;;;;;;9.85;4.55;;;;;;;40.73;33.49;94764.00;4962143;29;20042;-86
2023/08/22 16:02:06;;;;;;;7.68;5.10;;;;;;;36.50;38.65;94758.84;4944795;29;20093;-87
2023/08/22 16:04:32;;;;;;;12.35;5.95;;;;;;;38.64;35.45;94754.81;4944707;29;20499;-87
2023/08/22 16:06:58;;;;;;;7.82;4.78;;;;;;;40.24;36.25;94760.81;4962024;29;20043;-86
2023/08/22 16:09:23;;;;;;;12.23;5.05;;;;;;;41.91;34.44;94764.03;4944911;29;20058;-87
2023/08/22 16:11:49;;;;;;;7.00;4.90;;;;;;;42.51;34.81;94753.38;4961946;29;20070;-85
2023/08/22 16:14:14;;;;;;;10.35;5.50;;;;;;;40.06;36.83;94753.31;4961741;29;20405;-85
2023/08/22 16:16:39;;;;;;;7.07;4.55;;;;;;;42.29;34.12;94748.88;4960603;29;20043;-87
2023/08/22 16:19:05;;;;;;;7.45;4.10;;;;;;;42.24;34.26;94755.03;4960920;29;20035;-88
2023/08/22 16:21:30;;;;;;;6.38;4.68;;;;;;;41.10;36.41;94741.28;4927978;29;20432;-86
2023/08/22 16:23:56;;;;;;;7.28;4.53;;;;;;;42.28;34.95;94746.59;4961283;29;20043;-86
2023/08/22 16:26:21;;;;;;;8.23;4.72;;;;;;;41.81;34.13;94747.56;4926295;29;20027;-87
2023/08/22 16:28:51;;;;;;;7.30;4.50;;;;;;;41.51;35.89;94741.81;4942604;29;20492;-87
2023/08/22 16:31:17;;;;;;;7.53;4.57;;;;;;;42.91;34.09;94746.66;4941652;29;20048;-87
2023/08/22 16:33:42;;;;;;;10.70;4.88;;;;;;;41.74;36.34;94739.63;4910029;29;20437;-86
2023/08/22 16:36:08;;;;;;;7.18;4.90;;;;;;;42.81;35.08;94740.41;4925417;29;20042;-87
2023/08/22 16:38:33;;;;;;;10.13;5.47;;;;;;;37.71;37.20;94734.63;4925524;29;20028;-87
2023/08/22 16:40:59;;;;;;;10.52;5.70;;;;;;;39.65;34.60;94734.06;4925376;29;20046;-86
2023/08/22 16:43:24;;;;;;;8.30;5.10;;;;;;;41.01;34.61;94735.78;4925329;29;20039;-86
2023/08/22 16:45:50;;;;;;;6.25;4.82;;;;;;;40.88;37.52;94727.72;4925173;29;20126;-87
2023/08/22 16:48:16;;;;;;;6.55;5.13;;;;;;;39.91;36.29;94733.16;4908908;29;20028;-86
2023/08/22 16:50:46;;;;;;;8.23;5.55;;;;;;;36.27;40.09;94724.34;4925119;29;20322;-87
2023/08/22 16:53:12;;;;;;;8.95;5.00;;;;;;;38.65;38.25;94734.44;4925504;29;20035;-86
2023/08/22 16:55:38;;;;;;;8.65;5.65;;;;;;;38.45;37.33;94727.25;4924953;29;20357;-86
2023/08/22 16:58:04;;;;;;;9.57;5.43;;;;;;;38.71;38.64;94721.72;4924699;29;20175;-87
2023/08/22 17:00:32;;;;;;;9.88;5.55;;;;;;;38.30;39.23;94726.94;4925377;29;20063;-87
2023/08/22 17:02:58;;;;;;;7.55;5.05;;;;;;;37.35;38.95;94720.00;4928716;29;20117;-86
2023/08/22 17:05:25;;;;;;;9.20;5.97;;;;;;;33.79;44.20;94721.16;4924768;29;20032;-86
2023/08/22 17:07:50;;;;;;;14.13;5.68;;;;;;;33.69;45.55;94720.91;4924790;29;20425;-87
2023/08/22 17:10:16;;;;;;;11.43;5.70;;;;;;;32.88;46.57;94724.19;4924456;29;20028;-86
2023/08/22 17:12:41;;;;;;;11.85;5.78;;;;;;;32.89;46.68;94725.72;4924860;29;20059;-87
2023/08/22 17:15:07;;;;;;;17.02;6.18;;;;;;;32.35;47.96;94727.00;4925175;29;20429;-87
2023/08/22 17:17:33;;;;;;;11.13;6.38;;;;;;;31.78;50.16;94721.56;4924806;29;20034;-85
2023/08/22 17:19:58;;;;;;;10.68;5.97;;;;;;;31.34;51.42;94714.78;4908857;29;20429;-86
2023/08/22 17:22:24;;;;;;;13.13;7.00;;;;;;;30.83;52.93;94720.38;4924589;29;20125;-86
2023/08/22 17:24:49;;;;;;;12.25;6.82;;;;;;;29.59;59.42;94714.16;4941378;29;20032;-86
2023/08/22 17:27:17;;;;;;;12.50;6.70;;;;;;;29.51;60.23;94720.66;4924399;29;20039;-87
2023/08/22 17:29:42;;;;;;;21.60;7.95;;;;;;;29.27;63.38;94720.19;4924544;29;20137;-86
2023/08/22 17:32:08;;;;;;;11.07;6.47;;;;;;;29.10;67.41;94716.25;4924503;29;20114;-86
2023/08/22 17:34:33;;;;;;;14.25;7.45;;;;;;;28.46;73.76;94723.56;4941144;29;20035;-85
2023/08/22 17:36:59;;;;;;;15.15;6.57;;;;;;;28.92;71.75;94725.81;4941326;29;20039;-87
2023/08/22 17:39:25;;;;;;;15.73;6.93;;;;;;;29.18;72.64;94725.91;4941318;29;20058;-86
2023/08/22 17:41:50;;;;;;;9.73;6.78;;;;;;;28.29;74.72;94727.69;4908544;29;20063;-86
2023/08/22 17:44:16;;;;;;;20.08;6.80;;;;;;;27.95;78.69;94728.53;4940662;29;20066;-86
2023/08/22 17:46:41;;;;;;;12.45;7.40;;;;;;;27.65;81.12;94726.69;4908411;29;20433;-86
2023/08/22 17:49:07;;;;;;;10.70;6.82;;;;;;;27.62;82.13;94722.84;4923750;29;20046;-86
2023/08/22 17:51:32;;;;;;;12.70;7.22;;;;;;;27.57;82.76;94728.53;4941127;29;20035;-86
2023/08/22 17:53:57;;;;;;;14.43;7.00;;;;;;;27.57;83.08;94727.78;4941056;29;20037;-86
2023/08/22 17:56:24;;;;;;;8.32;6.35;;;;;;;27.56;82.51;94735.06;4935339;29;20035;-86
2023/08/22 17:58:50;;;;;;;10.25;6.53;;;;;;;27.71;83.58;94735.22;4942982;29;20531;-86
2023/08/22 18:01:16;;;;;;;10.18;6.47;;;;;;;28.05;79.09;94735.94;4960042;29;20043;-86
2023/08/22 18:03:41;;;;;;;14.38;7.00;;;;;;;28.02;78.53;94736.69;4942624;29;20039;-86
2023/08/22 18:06:07;;;;;;;11.10;6.97;;;;;;;27.90;80.36;94735.03;4942831;29;20117;-85
2023/08/22 18:08:33;;;;;;;9.80;6.93;;;;;;;27.81;81.41;94737.25;4942802;29;20035;-86
2023/08/22 18:10:59;;;;;;;19.90;7.53;;;;;;;27.94;79.65;94735.84;4942873;29;20047;-86
2023/08/22 18:13:27;;;;;;;9.93;6.90;;;;;;;27.95;80.79;94725.81;4959685;29;20110;-86
2023/08/22 18:15:58;;;;;;;16.27;7.65;;;;;;;27.50;83.10;94729.22;4959846;29;20046;-84
2023/08/22 18:18:23;;;;;;;11.85;7.35;;;;;;;27.27;83.82;94736.66;4959645;29;20046;-86
2023/08/22 18:20:48;;;;;;;14.20;7.57;;;;;;;27.22;83.73;94733.13;4925910;29;20424;-86
2023/08/22 18:23:14;;;;;;;10.23;6.72;;;;;;;27.38;82.81;94732.13;4942711;29;20424;-86
2023/08/22 18:25:39;;;;;;;10.98;6.72;;;;;;;27.32;83.00;94736.31;4942319;29;20049;-86
2023/08/22 18:28:05;;;;;;;9.40;6.57;;;;;;;27.16;86.36;94736.50;4959498;29;20039;-86
2023/08/22 18:30:30;;;;;;;18.73;7.80;;;;;;;27.20;83.31;94742.72;4959601;29;20452;-86
2023/08/22 18:32:56;;;;;;;9.38;7.05;;;;;;;26.97;86.79;94746.25;4959607;29;20043;-86
2023/08/22 18:35:21;;;;;;;14.93;6.93;;;;;;;27.28;84.41;94748.94;4942417;29;20035;-86
2023/08/22 18:37:47;;;;;;;9.15;6.78;;;;;;;27.36;85.11;94742.50;4942268;29;20074;-86
2023/08/22 18:40:12;;;;;;;11.02;6.35;;;;;;;27.29;85.27;94747.81;4959326;29;20388;-86
2023/08/22 18:42:38;;;;;;;10.23;6.60;;;;;;;27.28;84.54;94748.94;4942057;29;20043;-86
2023/08/22 18:45:04;;;;;;;13.15;7.53;;;;;;;26.98;86.00;94747.03;4942172;29;20404;-86
2023/08/22 18:47:29;;;;;;;12.45;7.15;;;;;;;26.75;88.12;94745.91;4942085;29;20098;-86
2023/08/22 18:49:58;;;;;;;15.48;7.03;;;;;;;26.99;88.55;94743.97;4959252;29;20039;-86
2023/08/22 18:52:23;;;;;;;14.60;7.65;;;;;;;26.79;88.00;94743.28;4958850;29;20341;-85
2023/08/22 18:54:49;;;;;;;10.93;6.88;;;;;;;26.88;88.21;94746.53;4941829;29;20071;-86
2023/08/22 18:57:15;;;;;;;12.10;7.13;;;;;;;26.76;89.36;94742.13;4959003;29;20038;-86
2023/08/22 18:59:40;;;;;;;16.13;7.22;;;;;;;26.61;87.90;94741.13;4926229;29;20038;-86
2023/08/22 19:02:05;;;;;;;8.48;6.55;;;;;;;26.73;89.11;94742.06;4959112;29;20528;-86
2023/08/22 19:04:31;;;;;;;10.85;7.03;;;;;;;26.58;91.71;94752.59;4941682;29;20035;-88
2023/08/22 19:06:56;;;;;;;9.90;6.60;;;;;;;26.86;87.95;94747.97;4942093;29;20085;-88
2023/08/22 19:09:24;;;;;;;15.25;7.07;;;;;;;26.33;89.60;94752.97;4941928;29;20035;-86
2023/08/22 19:11:50;;;;;;;14.30;6.97;;;;;;;26.22;90.29;94754.72;4941815;29;20039;-86
2023/08/22 19:14:15;;;;;;;13.27;6.95;;;;;;;26.07;87.99;94753.69;4958882;29;20043;-86
2023/08/22 19:16:40;;;;;;;12.82;6.68;;;;;;;26.32;88.13;94748.75;4958771;29;20614;-86
2023/08/22 19:19:06;;;;;;;11.32;6.75;;;;;;;26.06;88.85;94744.09;4941582;29;20040;-86
2023/08/22 19:21:31;;;;;;;9.98;6.65;;;;;;;25.91;88.55;94743.03;4941470;29;20039;-86
2023/08/22 19:23:57;;;;;;;15.43;7.05;;;;;;;25.87;90.46;94744.91;4941710;29;20070;-88
2023/08/22 19:26:26;;;;;;;13.95;7.47;;;;;;;25.94;92.19;94748.47;4959065;29;20437;-88
2023/08/22 19:28:51;;;;;;;10.38;6.85;;;;;;;25.90;93.40;94752.22;4958859;29;20035;-88
2023/08/22 19:31:17;;;;;;;8.55;6.60;;;;;;;26.01;92.89;94747.84;4958933;29;20062;-88
2023/08/22 19:33:43;;;;;;;10.57;7.43;;;;;;;26.13;93.62;94760.28;4963819;28;20413;-87
2023/08/22 19:36:09;;;;;;;15.65;7.57;;;;;;;26.25;98.03;94759.34;4946045;29;20062;-87
2023/08/22 19:38:34;;;;;;;13.10;7.53;;;;;;;26.15;99.43;94759.94;4945241;29;20031;-87
2023/08/22 19:41:00;;;;;;;13.00;7.28;;;;;;;26.02;96.64;94762.00;4962598;29;20043;-87
2023/08/22 19:43:25;;;;;;;17.77;7.80;;;;;;;25.77;99.75;94765.81;4962222;28;20170;-87
2023/08/22 19:45:50;;;;;;;13.43;8.05;;;;;;;25.67;99.35;94763.69;4945054;29;20027;-87
2023/08/22 19:48:16;;;;;;;10.95;6.63;;;;;;;25.68;99.01;94762.59;4962377;28;20039;-87
2023/08/22 19:50:42;;;;;;;13.55;7.75;;;;;;;25.80;97.05;94769.69;4945246;29;20043;-87
2023/08/22 19:53:08;;;;;;;11.82;7.53;;;;;;;25.72;98.72;94771.47;4945183;29;20035;-87
2023/08/22 19:55:33;;;;;;;13.35;6.95;;;;;;;25.57;99.56;94765.06;4945319;29;20464;-87
2023/08/22 19:58:00;;;;;;;8.30;6.63;;;;;;;25.72;98.05;94765.31;4929440;29;20062;-87
2023/08/22 20:00:25;;;;;;;11.85;6.90;;;;;;;25.71;97.29;94772.63;4945049;29;20039;-87
2023/08/22 20:02:51;;;;;;;13.35;7.95;;;;;;;25.59;98.63;94772.75;4962579;28;20050;-87
2023/08/22 20:05:16;;;;;;;15.70;7.30;;;;;;;25.59;98.33;94770.06;4962687;29;20130;-87
2023/08/22 20:07:43;;;;;;;13.52;7.22;;;;;;;25.31;100.00;94777.16;4944782;29;20352;-87
2023/08/22 20:10:09;;;;;;;15.70;7.60;;;;;;;25.12;100.00;94776.03;4962419;28;20042;-87
2023/08/22 20:12:35;;;;;;;15.82;8.52;;;;;;;25.29;100.00;94773.28;4928952;29;20043;-87
2023/08/22 20:15:00;;;;;;;11.35;7.47;;;;;;;25.28;100.00;94775.19;4962366;29;20392;-87
2023/08/22 20:17:25;;;;;;;12.10;7.35;;;;;;;25.36;100.00;94778.78;4962293;29;20030;-87
2023/08/22 20:19:51;;;;;;;11.68;7.38;;;;;;;25.40;100.00;94777.72;4962632;28;20043;-87
2023/08/22 20:22:16;;;;;;;16.10;7.47;;;;;;;25.47;99.18;94777.09;4945097;29;20031;-87
2023/08/22 20:24:41;;;;;;;9.45;7.00;;;;;;;25.42;99.83;94777.41;4962116;29;20035;-87
2023/08/22 20:27:07;;;;;;;12.15;7.20;;;;;;;25.54;99.31;94784.53;4944974;29;20348;-87
2023/08/22 20:29:32;;;;;;;10.85;7.28;;;;;;;25.17;100.00;94774.97;4945015;29;20039;-87
2023/08/22 20:31:58;;;;;;;18.25;8.10;;;;;;;25.00;100.00;94786.84;4944811;29;20063;-87
2023/08/22 20:34:24;;;;;;;17.70;7.30;;;;;;;24.94;100.00;94782.91;4945044;29;20509;-87
2023/08/22 20:36:50;;;;;;;9.68;6.85;;;;;;;25.08;100.00;94787.78;4929469;29;20507;-87
2023/08/22 20:39:17;;;;;;;11.52;7.50;;;;;;;25.06;100.00;94782.78;4925322;29;20044;-87
2023/08/22 20:41:45;;;;;;;15.55;7.20;;;;;;;25.09;100.00;94781.31;4926149;29;20036;-87
2023/08/22 20:44:11;;;;;;;10.43;7.05;;;;;;;24.91;100.00;94787.06;4923603;29;20050;-87
2023/08/22 20:46:37;;;;;;;17.95;7.78;;;;;;;25.01;100.00;94784.97;4922667;29;20426;-87
2023/08/22 20:49:03;;;;;;;11.70;7.50;;;;;;;24.98;100.00;94789.13;4922349;29;20042;-86
2023/08/22 20:51:28;;;;;;;14.48;7.38;;;;;;;25.13;99.95;94792.91;4922566;29;20040;-86
2023/08/22 20:53:53;;;;;;;10.90;6.80;;;;;;;25.15;100.00;94796.00;4939568;29;20561;-87
2023/08/22 20:56:19;;;;;;;9.27;6.65;;;;;;;25.08;100.00;94795.84;4939470;29;20051;-87
2023/08/22 20:58:44;;;;;;;15.40;7.65;;;;;;;24.84;100.00;94793.03;4939606;29;20342;-86
2023/08/22 21:01:10;;;;;;;9.63;7.57;;;;;;;24.65;100.00;94793.72;4949653;29;20039;-87
2023/08/22 21:03:35;;;;;;;11.30;7.10;;;;;;;24.45;100.00;94792.09;4941249;29;20030;-87
2023/08/22 21:06:03;;;;;;;10.32;7.20;;;;;;;24.79;100.00;94792.53;4958741;29;20129;-87
2023/08/22 21:08:29;;;;;;;9.88;7.18;;;;;;;24.75;100.00;94783.59;4941786;29;20133;-87
2023/08/22 21:10:55;;;;;;;17.95;7.32;;;;;;;24.61;100.00;94794.78;4937707;29;20448;-88
2023/08/22 21:13:21;;;;;;;22.27;7.28;;;;;;;24.63;100.00;94790.63;4939413;29;20082;-87
2023/08/22 21:15:48;;;;;;;10.45;7.18;;;;;;;24.59;100.00;94792.44;4939485;29;20039;-87
2023/08/22 21:18:13;;;;;;;13.90;7.53;;;;;;;24.63;100.00;94792.53;4939128;29;20358;-86
2023/08/22 21:20:39;;;;;;;13.82;7.50;;;;;;;24.65;100.00;94779.56;4922190;29;20055;-87
2023/08/22 21:23:08;;;;;;;12.38;7.40;;;;;;;24.73;100.00;94788.53;4938953;29;20479;-87
2023/08/22 21:25:35;;;;;;;12.65;6.90;;;;;;;24.78;99.19;94785.59;4922730;29;20118;-86
2023/08/22 21:28:00;;;;;;;12.02;7.28;;;;;;;24.78;97.81;94782.94;4922062;29;20062;-87
2023/08/22 21:30:26;;;;;;;11.15;7.35;;;;;;;24.42;100.00;94789.00;4939129;29;20047;-87
2023/08/22 21:32:52;;;;;;;10.93;7.40;;;;;;;24.56;100.00;94787.78;4923203;29;20045;-86
2023/08/22 21:35:18;;;;;;;10.75;7.25;;;;;;;24.54;99.97;94790.78;4923084;29;20114;-87
2023/08/22 21:37:44;;;;;;;9.80;6.55;;;;;;;24.52;100.00;94797.63;4923330;29;20136;-86
2023/08/22 21:40:10;;;;;;;10.85;7.00;;;;;;;24.38;100.00;94793.47;4940080;29;20040;-86
2023/08/22 21:42:36;;;;;;;10.70;7.20;;;;;;;24.46;100.00;94801.69;4922876;29;20043;-86
2023/08/22 21:45:02;;;;;;;11.63;6.90;;;;;;;24.48;100.00;94800.22;4939883;29;20043;-86
2023/08/22 21:47:27;;;;;;;16.48;6.90;;;;;;;24.56;99.34;94803.84;4921059;29;20055;-87
2023/08/22 21:49:55;;;;;;;13.57;7.05;;;;;;;24.48;100.00;94802.13;4921918;29;20469;-87
2023/08/22 21:52:20;;;;;;;9.48;7.10;;;;;;;24.50;100.00;94800.66;4922357;29;20051;-87
2023/08/22 21:54:46;;;;;;;8.60;6.57;;;;;;;24.35;100.00;94796.84;4921622;29;20101;-87
2023/08/22 21:57:11;;;;;;;11.80;7.38;;;;;;;24.29;100.00;94792.88;4921129;29;20050;-87
2023/08/22 21:59:37;;;;;;;11.80;6.68;;;;;;;24.09;100.00;94790.09;4905754;29;20090;-87
2023/08/22 22:02:02;;;;;;;10.52;7.13;;;;;;;23.69;100.00;94789.03;4921620;29;20056;-87
2023/08/22 22:04:27;;;;;;;13.40;7.50;;;;;;;23.50;100.00;94795.00;4905765;29;20054;-87
2023/08/22 22:06:53;;;;;;;15.57;7.68;;;;;;;23.51;100.00;94788.53;4921358;29;20460;-87
2023/08/22 22:09:19;;;;;;;12.95;7.45;;;;;;;23.63;100.00;94789.63;4938185;29;20054;-87
2023/08/22 22:11:45;;;;;;;12.70;7.72;;;;;;;23.52;100.00;94792.00;4921662;29;20059;-87
2023/08/22 22:14:10;;;;;;;10.90;7.40;;;;;;;23.41;100.00;94787.13;4921130;29;20118;-87
2023/08/22 22:16:35;;;;;;;15.50;7.35;;;;;;;23.43;100.00;94789.47;4920983;29;20040;-86
2023/08/22 22:19:02;;;;;;;14.55;7.93;;;;;;;23.58;100.00;94783.41;4937814;29;20070;-87
2023/08/22 22:21:27;;;;;;;10.32;6.88;;;;;;;23.74;100.00;94790.69;4921346;29;20054;-87
2023/08/22 22:23:53;;;;;;;10.98;7.15;;;;;;;23.76;100.00;94793.03;4920814;29;20043;-87
2023/08/22 22:26:19;;;;;;;9.90;6.60;;;;;;;23.73;100.00;94792.56;4905640;29;20055;-87
2023/08/22 22:28:46;;;;;;;13.00;6.65;;;;;;;23.68;100.00;94792.84;4937791;29;20041;-86
2023/08/22 22:31:13;;;;;;;10.80;6.97;;;;;;;23.72;100.00;94796.38;4938180;29;20494;-87
2023/08/22 22:33:39;;;;;;;10.00;6.65;;;;;;;23.43;100.00;94800.16;4920907;29;20048;-87
2023/08/22 22:36:06;;;;;;;13.52;7.47;;;;;;;23.08;100.00;94793.44;4937675;29;20043;-87
2023/08/22 22:38:31;;;;;;;12.95;7.65;;;;;;;22.92;100.00;94798.69;4920610;29;20028;-87
2023/08/22 22:41:01;;;;;;;15.38;7.70;;;;;;;22.77;100.00;94802.03;4920605;29;20039;-87
2023/08/22 22:43:28;;;;;;;13.40;7.68;;;;;;;22.83;100.00;94798.03;4904263;29;20043;-87
2023/08/22 22:45:54;;;;;;;13.55;7.75;;;;;;;22.78;100.00;94807.06;4938152;29;20465;-87
2023/08/22 22:48:19;;;;;;;13.45;7.25;;;;;;;22.98;100.00;94805.38;4904788;29;20055;-87
2023/08/22 22:50:45;;;;;;;12.13;7.07;;;;;;;22.89;100.00;94804.69;4937874;29;20031;-86
2023/08/22 22:53:10;;;;;;;10.73;7.35;;;;;;;23.03;100.00;94812.38;4920208;29;20027;-87
2023/08/22 22:55:36;;;;;;;12.85;7.72;;;;;;;23.09;100.00;94796.88;4937540;29;20030;-87
2023/08/22 22:58:02;;;;;;;7.55;6.10;;;;;;;23.23;100.00;94797.28;4937258;29;20103;-86
2023/08/22 23:00:27;;;;;;;11.73;6.75;;;;;;;23.29;100.00;94795.19;4920123;29;20027;-86
2023/08/22 23:02:56;;;;;;;9.30;6.75;;;;;;;23.19;100.00;94793.75;4920124;29;20060;-87
2023/08/22 23:05:21;;;;;;;13.07;7.32;;;;;;;23.13;100.00;94792.44;4937352;29;20389;-87
2023/08/22 23:07:47;;;;;;;13.98;7.05;;;;;;;22.89;100.00;94786.00;4919547;29;20094;-87
2023/08/22 23:10:13;;;;;;;9.07;6.68;;;;;;;22.97;100.00;94782.44;4919870;29;20134;-87
2023/08/22 23:12:39;;;;;;;11.63;7.00;;;;;;;22.91;100.00;94781.09;4920505;29;20134;-87
2023/08/22 23:15:05;;;;;;;13.55;7.15;;;;;;;23.14;100.00;94783.28;4920164;29;20127;-87
2023/08/22 23:17:38;;;;;;;10.05;6.55;;;;;;;23.16;100.00;94781.06;4920087;29;20529;-87
2023/08/22 23:20:13;;;;;;;10.68;6.40;;;;;;;23.27;100.00;94779.50;4919857;29;20079;-87
2023/08/22 23:22:41;;;;;;;14.52;6.60;;;;;;;22.91;100.00;94777.66;4919983;29;20164;-87
2023/08/22 23:25:07;;;;;;;11.98;7.30;;;;;;;22.58;100.00;94782.00;4920182;29;20457;-87
2023/08/22 23:27:33;;;;;;;10.73;7.13;;;;;;;22.44;100.00;94777.75;4919881;29;20043;-87
2023/08/22 23:29:59;;;;;;;12.27;7.10;;;;;;;22.33;100.00;94779.28;4904302;29;20032;-87
2023/08/22 23:32:29;;;;;;;9.93;6.78;;;;;;;22.32;100.00;94780.41;4937538;29;20058;-87
2023/08/22 23:35:05;;;;;;;8.57;6.10;;;;;;;22.55;100.00;94777.34;4919831;29;20446;-87
2023/08/22 23:37:31;;;;;;;8.90;6.40;;;;;;;22.83;100.00;94779.34;4937396;29;20323;-86
2023/08/22 23:39:57;;;;;;;9.95;5.95;;;;;;;23.12;100.00;94777.50;4936660;29;20039;-87
2023/08/22 23:42:22;;;;;;;8.75;6.18;;;;;;;23.07;100.00;94764.38;4920513;29;20039;-87
2023/08/22 23:44:48;;;;;;;12.88;6.13;;;;;;;23.17;100.00;94771.91;4920008;29;20055;-87
2023/08/22 23:47:15;;;;;;;9.40;6.50;;;;;;;22.96;100.00;94762.19;4919874;29;20043;-87
2023/08/22 23:49:42;;;;;;;11.93;6.65;;;;;;;22.80;100.00;94769.31;4919561;29;20036;-87
2023/08/22 23:52:07;;;;;;;9.27;6.25;;;;;;;22.86;100.00;94771.41;4920112;29;20110;-87
2023/08/22 23:54:33;;;;;;;10.75;6.45;;;;;;;22.74;100.00;94760.75;4936756;29;20067;-87
2023/08/22 23:57:00;;;;;;;10.65;6.68;;;;;;;22.61;100.00;94757.31;4922123;29;20046;-87